Dinero, Texas
Current Conditions -  °F | °C
As of 12:35 AM on Monday 26 Jan 2015 (Local Time) from KBEA Reporting Station
Clear Clear  
Wind Chill: 54°   Ceiling: Unl
Heat Index: 54°   Visibility: 10mi
Dew Point: 39°   Wind: 5mph
Humidity: 56%   Direction: 330°NNW
Pressure: 30.21"   Gusts: NA
Location:  28.23°N, 97.96°W
Report Text: KBEA 260635Z AUTO 33004KT 10SM CLR 12/04 A3021 RMK AO2 T01230037
Loading
Personal Weather Stations






























Interactive Weather Map New forecast layout! Learn more

10-Day Weather Forecast

Advertisements
Track Severe Weather on mobile